Time;durP1;ratioP1;P1;durP2;ratioP2;P2;SDS_P1;SDS_P2;PMS_P1;PMS_P2;Temp;Humidity;BMP_temperature;BMP_pressure;BME280_temperature;BME280_humidity;BME280_pressure;Samples;Min_cycle;Max_cycle;Signal;HPM_P1;HPM_P2
2022/09/21 00:01:14;;;;;;;1.72;1.62;;;;;;;16.17;41.39;101479.11;1737804;82;21082;-53
2022/09/21 00:03:42;;;;;;;2.15;1.62;;;;;;;16.14;41.42;101481.81;1706177;83;21489;-54
2022/09/21 00:06:13;;;;;;;3.25;1.60;;;;;;;16.12;41.42;101487.58;1707530;83;21045;-54
2022/09/21 00:08:40;;;;;;;4.28;1.95;;;;;;;16.10;41.42;101489.39;1632592;87;21085;-53
2022/09/21 00:11:12;;;;;;;3.02;1.80;;;;;;;16.07;41.51;101492.10;1642460;87;21013;-57
2022/09/21 00:13:39;;;;;;;2.83;2.08;;;;;;;16.04;41.47;101490.91;1613423;89;21127;-53
2022/09/21 00:16:07;;;;;;;2.22;1.62;;;;;;;16.01;41.62;101490.98;1612159;88;21643;-57
2022/09/21 00:18:34;;;;;;;2.15;1.90;;;;;;;15.97;41.82;101486.75;1615055;89;21492;-56
2022/09/21 00:21:11;;;;;;;1.55;1.40;;;;;;;15.96;41.86;101492.92;1613656;89;21029;-56
2022/09/21 00:23:38;;;;;;;1.75;1.40;;;;;;;15.94;41.89;101489.94;1611449;89;21092;-53
2022/09/21 00:26:09;;;;;;;1.95;1.42;;;;;;;15.90;41.86;101482.62;1612051;89;21142;-57
2022/09/21 00:28:36;;;;;;;1.47;1.37;;;;;;;15.88;41.74;101489.69;1545872;93;21091;-56
2022/09/21 00:31:05;;;;;;;1.67;1.40;;;;;;;15.86;41.70;101483.63;1546089;93;21132;-56
2022/09/21 00:33:33;;;;;;;2.25;1.20;;;;;;;15.83;41.61;101483.71;1546168;93;21079;-55
2022/09/21 00:36:08;;;;;;;2.33;1.47;;;;;;;15.81;41.54;101485.52;1546037;93;21213;-53
2022/09/21 00:38:35;;;;;;;1.82;1.27;;;;;;;15.80;41.50;101484.27;1540641;93;21088;-59
2022/09/21 00:41:03;;;;;;;4.15;1.32;;;;;;;15.76;41.55;101484.83;1568498;91;21631;-54
2022/09/21 00:43:35;;;;;;;2.72;1.30;;;;;;;15.75;41.56;101480.47;1570066;91;22287;-54
2022/09/21 00:46:09;;;;;;;3.40;1.07;;;;;;;15.72;41.61;101480.59;1570807;91;21510;-54
2022/09/21 00:48:37;;;;;;;1.95;1.30;;;;;;;15.70;41.53;101478.47;1569367;91;21575;-55
2022/09/21 00:51:05;;;;;;;1.85;1.37;;;;;;;15.69;41.41;101479.80;1541527;92;21098;-53
2022/09/21 00:53:33;;;;;;;1.20;1.10;;;;;;;15.67;41.25;101478.98;1569588;91;21122;-57
2022/09/21 00:56:01;;;;;;;2.67;1.10;;;;;;;15.65;41.02;101479.49;1565037;91;21067;-52
2022/09/21 00:58:35;;;;;;;1.25;1.10;;;;;;;15.63;41.02;101479.99;1563859;91;21090;-55
2022/09/21 01:01:02;;;;;;;1.92;1.37;;;;;;;15.60;41.05;101477.48;1564298;91;21123;-58
2022/09/21 01:03:29;;;;;;;1.72;1.25;;;;;;;15.57;41.11;101479.73;1562789;92;21566;-53
2022/09/21 01:05:56;;;;;;;2.37;1.20;;;;;;;15.54;41.22;101482.44;1576004;90;21567;-56
2022/09/21 01:08:24;;;;;;;1.80;1.20;;;;;;;15.52;41.18;101481.63;1580825;90;21075;-55
2022/09/21 01:11:21;;;;;;;1.77;1.17;;;;;;;15.51;41.11;101478.62;1589152;90;21049;-54
2022/09/21 01:13:57;;;;;;;1.50;1.30;;;;;;;15.48;41.16;101479.56;1571300;91;21081;-56
2022/09/21 01:16:38;;;;;;;1.42;1.20;;;;;;;15.45;41.45;101476.19;1598093;89;21082;-53
2022/09/21 01:19:47;;;;;;;1.12;1.10;;;;;;;15.43;41.56;101481.45;1591294;90;21156;-52
2022/09/21 01:22:37;;;;;;;1.60;1.50;;;;;;;15.43;41.61;101483.23;1571718;91;21062;-54
2022/09/21 01:25:31;;;;;;;1.27;1.02;;;;;;;15.40;41.60;101481.97;1569310;88;21049;-54
2022/09/21 01:28:09;;;;;;;1.10;1.10;;;;;;;15.38;41.60;101482.47;1590252;90;21047;-55
2022/09/21 01:30:36;;;;;;;2.05;1.35;;;;;;;15.35;41.62;101479.95;1570041;91;21608;-56
2022/09/21 01:33:14;;;;;;;1.20;1.10;;;;;;;15.32;41.56;101482.66;1606234;89;21141;-54
2022/09/21 01:35:49;;;;;;;1.40;1.27;;;;;;;15.30;41.66;101487.09;1599839;90;21518;-53
2022/09/21 01:38:30;;;;;;;1.30;1.20;;;;;;;15.27;41.63;101476.70;1610412;89;21089;-53
2022/09/21 01:41:02;;;;;;;1.70;1.07;;;;;;;15.25;41.61;101478.52;1534431;93;21097;-51
2022/09/21 01:43:33;;;;;;;2.12;1.25;;;;;;;15.22;41.85;101477.28;1534501;92;21153;-55
2022/09/21 01:46:02;;;;;;;1.77;1.40;;;;;;;15.21;41.83;101475.55;1534662;93;21604;-55
2022/09/21 01:48:35;;;;;;;1.35;1.20;;;;;;;15.18;41.97;101480.45;1534525;93;21081;-61
2022/09/21 01:51:05;;;;;;;2.75;1.30;;;;;;;15.18;41.97;101479.58;1534425;93;21077;-54
2022/09/21 01:53:45;;;;;;;2.35;1.40;;;;;;;15.16;42.06;101476.15;1534350;93;21086;-53
2022/09/21 01:56:17;;;;;;;1.52;1.30;;;;;;;15.14;42.23;101477.95;1534298;93;21174;-55
2022/09/21 01:58:58;;;;;;;4.75;1.45;;;;;;;15.13;42.21;101480.16;1536145;92;21553;-52
2022/09/21 02:01:26;;;;;;;1.50;1.40;;;;;;;15.12;42.21;101482.38;1497275;96;21126;-53
2022/09/21 02:03:56;;;;;;;1.50;1.40;;;;;;;15.09;42.33;101478.08;1539189;90;21080;-55
2022/09/21 02:06:25;;;;;;;1.37;1.20;;;;;;;15.09;42.37;101483.77;1588620;90;21108;-57
2022/09/21 02:08:52;;;;;;;1.50;1.40;;;;;;;15.05;42.35;101474.28;1588469;90;21136;-55
2022/09/21 02:11:19;;;;;;;1.52;1.30;;;;;;;15.04;42.58;101474.75;1588059;90;21588;-54
2022/09/21 02:13:47;;;;;;;2.45;1.22;;;;;;;15.03;42.59;101469.53;1588182;90;21116;-52
2022/09/21 02:16:38;;;;;;;1.85;1.50;;;;;;;15.03;42.53;101474.77;1588856;90;21076;-55
2022/09/21 02:19:23;;;;;;;1.47;1.30;;;;;;;15.01;42.59;101477.45;1589281;90;21080;-57
2022/09/21 02:22:18;;;;;;;2.60;1.47;;;;;;;15.01;42.77;101476.58;1587221;90;21092;-51
2022/09/21 02:25:02;;;;;;;1.60;1.50;;;;;;;15.00;42.77;101478.33;1583635;90;21084;-51
2022/09/21 02:27:53;;;;;;;1.62;1.47;;;;;;;14.99;42.94;101473.14;1458399;98;21094;-54
2022/09/21 02:30:24;;;;;;;1.57;1.47;;;;;;;14.98;43.08;101481.92;1443911;99;21205;-52
2022/09/21 02:33:21;;;;;;;1.72;1.30;;;;;;;14.97;43.31;101477.56;1455410;99;21115;-52
2022/09/21 02:36:08;;;;;;;1.50;1.40;;;;;;;14.97;43.34;101486.74;1464385;98;21101;-54
2022/09/21 02:38:45;;;;;;;2.87;1.30;;;;;;;14.94;43.15;101481.13;1464650;98;21193;-54
2022/09/21 02:41:25;;;;;;;1.62;1.25;;;;;;;14.96;43.14;101482.42;1431185;99;21157;-56
2022/09/21 02:44:18;;;;;;;2.25;1.72;;;;;;;14.93;43.15;101482.48;1417787;100;21147;-54
2022/09/21 02:46:58;;;;;;;1.40;1.27;;;;;;;14.92;43.43;101484.72;1417748;100;21690;-53
2022/09/21 02:49:35;;;;;;;3.27;1.50;;;;;;;14.91;43.64;101485.61;1423822;100;21653;-53
2022/09/21 02:52:07;;;;;;;2.50;1.67;;;;;;;14.90;43.72;101487.84;1427364;100;21125;-55
2022/09/21 02:54:34;;;;;;;1.70;1.60;;;;;;;14.90;43.74;101492.59;1426824;99;21137;-53
2022/09/21 02:57:02;;;;;;;3.77;1.70;;;;;;;14.91;43.82;101490.84;1397704;102;22815;-54
2022/09/21 02:59:29;;;;;;;2.33;1.40;;;;;;;14.90;43.76;101495.22;1419997;100;21673;-55
2022/09/21 03:01:56;;;;;;;2.37;1.75;;;;;;;14.91;43.91;101496.09;1420357;100;21142;-53
2022/09/21 03:04:23;;;;;;;1.42;1.32;;;;;;;14.91;43.92;101498.70;1419789;100;21156;-55
2022/09/21 03:06:50;;;;;;;2.12;1.60;;;;;;;14.89;44.10;101504.00;1388443;103;21115;-53
2022/09/21 03:09:18;;;;;;;2.65;1.90;;;;;;;14.89;44.12;101506.62;1389568;103;21191;-56
2022/09/21 03:11:45;;;;;;;2.20;1.75;;;;;;;14.89;44.09;101504.00;1387115;103;21161;-54
2022/09/21 03:14:12;;;;;;;2.50;1.45;;;;;;;14.90;44.16;101498.31;1388346;103;21111;-53
2022/09/21 03:16:39;;;;;;;1.80;1.60;;;;;;;14.89;44.16;101497.89;1393913;98;21192;-54
2022/09/21 03:19:06;;;;;;;2.37;1.65;;;;;;;14.89;44.07;101495.27;1479391;96;21644;-53
2022/09/21 03:21:33;;;;;;;1.62;1.52;;;;;;;14.88;43.98;101495.71;1463524;97;21140;-55
2022/09/21 03:24:00;;;;;;;1.70;1.57;;;;;;;14.87;44.00;101497.08;1486326;95;21643;-54
2022/09/21 03:26:27;;;;;;;3.50;1.42;;;;;;;14.86;43.95;101497.99;1501752;90;21128;-53
2022/09/21 03:28:54;;;;;;;1.92;1.62;;;;;;;14.85;43.96;101507.61;1624237;88;21068;-57
2022/09/21 03:31:21;;;;;;;1.92;1.60;;;;;;;14.84;44.02;101510.28;1620200;88;21140;-55
2022/09/21 03:33:48;;;;;;;2.15;1.80;;;;;;;14.83;44.21;101513.78;1620360;88;21134;-55
2022/09/21 03:36:15;;;;;;;2.47;1.40;;;;;;;14.83;44.39;101511.16;1620536;88;21634;-53
2022/09/21 03:38:41;;;;;;;1.50;1.40;;;;;;;14.84;44.48;101510.28;1660402;86;21556;-59
2022/09/21 03:41:08;;;;;;;1.90;1.42;;;;;;;14.85;44.58;101519.40;1699971;83;21009;-57
2022/09/21 03:43:36;;;;;;;2.83;1.75;;;;;;;14.88;44.66;101517.16;1689567;84;21072;-53
2022/09/21 03:46:02;;;;;;;1.90;1.70;;;;;;;14.90;44.69;101517.49;1661174;86;21569;-55
2022/09/21 03:48:29;;;;;;;2.72;1.62;;;;;;;14.94;44.69;101518.30;1670502;85;21069;-53
2022/09/21 03:50:56;;;;;;;1.87;1.77;;;;;;;14.96;44.61;101520.42;1670404;86;21053;-54
2022/09/21 03:53:23;;;;;;;2.00;1.90;;;;;;;14.99;44.54;101520.31;1670389;85;21060;-55
2022/09/21 03:55:49;;;;;;;2.50;1.65;;;;;;;14.98;44.48;101519.45;1704324;83;21062;-55
2022/09/21 03:58:16;;;;;;;1.77;1.67;;;;;;;14.99;44.41;101520.31;1690290;85;21050;-54
2022/09/21 04:00:42;;;;;;;2.25;1.40;;;;;;;14.96;44.45;101531.73;1690678;85;21050;-54
2022/09/21 04:03:09;;;;;;;1.92;1.70;;;;;;;14.94;44.54;101530.09;1690367;85;21071;-53
2022/09/21 04:05:38;;;;;;;3.85;2.02;;;;;;;14.93;44.64;101524.42;1690090;85;21059;-54
2022/09/21 04:08:05;;;;;;;1.60;1.50;;;;;;;14.92;44.76;101527.95;1664631;85;21055;-53
2022/09/21 04:10:34;;;;;;;1.77;1.62;;;;;;;14.89;44.70;101530.64;1689959;85;21071;-60
2022/09/21 04:13:02;;;;;;;2.37;1.90;;;;;;;14.86;44.81;101530.27;1689571;85;21126;-56
2022/09/21 04:15:28;;;;;;;2.67;1.67;;;;;;;14.85;44.80;101532.94;1688582;85;21568;-52
2022/09/21 04:17:56;;;;;;;2.42;1.72;;;;;;;14.83;44.86;101528.19;1690529;85;21051;-54
2022/09/21 04:20:22;;;;;;;2.25;1.75;;;;;;;14.81;45.06;101530.00;1690537;85;21055;-55
2022/09/21 04:22:50;;;;;;;3.75;1.65;;;;;;;14.79;45.15;101534.41;1686752;85;21070;-58
2022/09/21 04:25:17;;;;;;;1.60;1.50;;;;;;;14.78;45.36;101527.44;1690383;85;21023;-59
2022/09/21 04:27:44;;;;;;;2.83;1.70;;;;;;;14.77;45.63;101537.53;1689338;85;21506;-54
2022/09/21 04:30:13;;;;;;;2.00;1.80;;;;;;;14.77;45.94;101542.77;1690395;85;21091;-53
2022/09/21 04:32:39;;;;;;;3.35;1.82;;;;;;;14.79;46.11;101537.03;1690595;85;21074;-57
2022/09/21 04:35:08;;;;;;;1.95;1.85;;;;;;;14.83;46.09;101536.05;1689883;85;21047;-54
2022/09/21 04:37:36;;;;;;;3.00;2.20;;;;;;;14.85;46.17;101536.88;1689856;85;21035;-57
2022/09/21 04:40:04;;;;;;;2.10;1.90;;;;;;;14.89;46.27;101531.95;1689741;85;21012;-55
2022/09/21 04:42:31;;;;;;;2.10;1.90;;;;;;;14.92;46.44;101537.12;1689972;85;21463;-52
2022/09/21 04:44:59;;;;;;;2.27;1.60;;;;;;;14.95;46.51;101537.89;1689889;85;21035;-58
2022/09/21 04:47:29;;;;;;;2.37;1.85;;;;;;;14.96;46.63;101541.39;1690308;85;21058;-53
2022/09/21 04:49:56;;;;;;;2.05;1.95;;;;;;;14.95;46.79;101540.52;1690595;85;21087;-55
2022/09/21 04:52:22;;;;;;;2.20;2.00;;;;;;;14.93;47.06;101536.21;1690229;85;21086;-56
2022/09/21 04:54:49;;;;;;;1.65;1.55;;;;;;;14.95;47.22;101542.27;1689974;85;21043;-62
2022/09/21 04:57:17;;;;;;;2.35;2.02;;;;;;;14.98;47.48;101539.58;1717952;83;21081;-54
2022/09/21 04:59:43;;;;;;;3.12;1.87;;;;;;;15.00;47.61;101535.16;1720861;83;21502;-55
2022/09/21 05:02:11;;;;;;;2.52;1.87;;;;;;;15.04;47.73;101531.55;1720779;83;21078;-53
2022/09/21 05:04:38;;;;;;;1.70;1.60;;;;;;;15.11;47.75;101535.70;1720776;83;21047;-54
2022/09/21 05:07:05;;;;;;;4.75;1.87;;;;;;;15.18;47.84;101533.33;1715277;83;21010;-53
2022/09/21 05:12:18;;;;;;;2.70;2.22;;;;;;;15.33;47.96;101542.08;1719928;83;21078;-54
2022/09/21 05:14:45;;;;;;;2.45;2.25;;;;;;;15.37;48.14;101537.98;1720109;83;21061;-51
2022/09/21 05:17:12;;;;;;;1.98;1.75;;;;;;;15.44;48.34;101540.02;1720108;83;21030;-53
2022/09/21 05:19:39;;;;;;;2.05;1.85;;;;;;;15.49;48.38;101535.52;1719846;83;21459;-59
2022/09/21 05:22:06;;;;;;;3.40;2.10;;;;;;;15.55;48.43;101535.33;1720704;83;21101;-51
2022/09/21 05:24:33;;;;;;;2.60;2.20;;;;;;;15.63;48.51;101534.64;1721034;83;21074;-53
2022/09/21 05:27:00;;;;;;;2.72;2.40;;;;;;;15.70;48.48;101534.87;1719812;83;21006;-52
2022/09/21 05:29:28;;;;;;;5.97;2.55;;;;;;;15.80;48.44;101534.13;1720609;83;21538;-53
2022/09/21 05:32:05;;;;;;;2.98;2.08;;;;;;;15.90;48.44;101532.49;1720350;83;21015;-52
2022/09/21 05:34:49;;;;;;;2.50;2.30;;;;;;;15.99;48.46;101532.18;1720073;83;21027;-53
2022/09/21 05:37:46;;;;;;;2.40;2.20;;;;;;;16.06;48.33;101536.34;1715929;83;21007;-51
2022/09/21 05:40:14;;;;;;;2.83;2.33;;;;;;;16.11;48.38;101534.45;1718607;83;21559;-58
2022/09/21 05:42:43;;;;;;;2.22;2.02;;;;;;;16.16;48.36;101529.89;1718157;83;21001;-56
2022/09/21 05:45:15;;;;;;;2.37;2.17;;;;;;;16.20;48.41;101532.81;1719537;83;21030;-59
2022/09/21 05:48:14;;;;;;;5.17;2.40;;;;;;;16.26;48.61;101527.36;1719001;83;21479;-54
2022/09/21 05:50:52;;;;;;;2.85;1.82;;;;;;;16.36;48.83;101529.25;1699113;83;21043;-55
2022/09/21 05:53:58;;;;;;;2.70;2.10;;;;;;;16.55;48.60;101529.52;1717466;83;21077;-58
2022/09/21 05:56:34;;;;;;;2.22;2.02;;;;;;;16.71;48.15;101533.34;1710600;83;21069;-55
2022/09/21 05:59:30;;;;;;;2.87;2.10;;;;;;;16.86;47.85;101527.52;1678417;85;21524;-52
2022/09/21 06:02:21;;;;;;;2.25;2.00;;;;;;;16.94;47.70;101524.17;1669347;85;21002;-55
2022/09/21 06:04:48;;;;;;;2.95;2.40;;;;;;;17.01;47.57;101528.31;1672683;85;21001;-53
2022/09/21 06:07:15;;;;;;;2.65;2.40;;;;;;;17.05;47.58;101525.97;1678176;85;21025;-51
2022/09/21 06:09:42;;;;;;;2.00;1.90;;;;;;;17.09;47.53;101530.20;1678464;85;21076;-55
2022/09/21 06:12:10;;;;;;;3.47;2.40;;;;;;;17.13;47.57;101530.94;1678628;85;21018;-55
2022/09/21 06:14:39;;;;;;;3.10;1.90;;;;;;;17.17;47.70;101527.28;1678441;85;21037;-54
2022/09/21 06:17:08;;;;;;;3.47;2.22;;;;;;;17.23;47.78;101529.23;1678704;85;21545;-52
2022/09/21 06:19:35;;;;;;;4.92;2.05;;;;;;;17.29;47.55;101530.32;1678643;85;21465;-51
2022/09/21 06:22:03;;;;;;;1.98;1.87;;;;;;;17.36;47.58;101526.56;1677631;85;21045;-54
2022/09/21 06:24:31;;;;;;;2.10;1.90;;;;;;;17.42;47.53;101531.59;1678023;85;21080;-53
2022/09/21 06:26:57;;;;;;;2.15;1.92;;;;;;;17.52;47.47;101536.94;1678410;85;20990;-52
2022/09/21 06:29:24;;;;;;;2.08;1.90;;;;;;;17.61;47.34;101535.28;1677990;85;21583;-51
2022/09/21 06:31:50;;;;;;;2.95;2.10;;;;;;;17.70;47.18;101537.55;1678510;85;21022;-58
2022/09/21 06:34:17;;;;;;;2.05;1.82;;;;;;;17.78;47.04;101535.47;1678610;85;21122;-56
2022/09/21 06:36:46;;;;;;;2.65;2.05;;;;;;;17.87;46.71;101540.39;1704550;83;21014;-51
2022/09/21 06:39:13;;;;;;;2.12;1.87;;;;;;;17.94;46.64;101534.87;1716042;83;21029;-51
2022/09/21 06:41:39;;;;;;;2.08;1.87;;;;;;;17.98;46.55;101532.52;1720378;83;21077;-52
2022/09/21 06:44:08;;;;;;;1.95;1.85;;;;;;;18.03;46.48;101535.39;1717674;83;21073;-52
2022/09/21 06:46:35;;;;;;;3.72;1.75;;;;;;;18.08;46.44;101532.09;1719409;83;21028;-52
2022/09/21 06:49:02;;;;;;;2.47;1.57;;;;;;;18.16;46.06;101533.09;1718180;83;21038;-56
2022/09/21 06:51:29;;;;;;;2.20;1.90;;;;;;;18.26;46.08;101526.55;1720636;83;21573;-54
2022/09/21 06:53:56;;;;;;;2.58;1.98;;;;;;;18.38;45.82;101523.41;1720832;83;21025;-51
2022/09/21 06:56:24;;;;;;;2.87;1.65;;;;;;;18.52;45.89;101528.98;1717841;83;21078;-52
2022/09/21 06:58:51;;;;;;;3.45;1.70;;;;;;;18.65;45.44;101527.52;1718439;82;21549;-55
2022/09/21 07:01:18;;;;;;;1.60;1.50;;;;;;;18.73;45.22;101520.17;1672349;84;21035;-55
2022/09/21 07:03:50;;;;;;;1.45;1.35;;;;;;;18.77;45.09;101528.34;1699122;84;21509;-53
2022/09/21 07:06:19;;;;;;;2.08;1.77;;;;;;;18.79;44.78;101526.49;1678498;84;21059;-54
2022/09/21 07:08:47;;;;;;;2.17;1.65;;;;;;;18.82;44.70;101527.66;1694276;84;21062;-53
2022/09/21 07:11:14;;;;;;;1.65;1.55;;;;;;;18.88;44.47;101529.16;1705912;83;21038;-57
2022/09/21 07:13:41;;;;;;;2.25;1.50;;;;;;;18.91;44.62;101523.31;1708911;83;21014;-52
2022/09/21 07:16:08;;;;;;;1.85;1.40;;;;;;;18.95;44.52;101522.71;1700881;84;21018;-55
2022/09/21 07:18:37;;;;;;;1.60;1.50;;;;;;;18.98;44.32;101526.06;1695542;83;21593;-52
2022/09/21 07:21:07;;;;;;;1.42;1.32;;;;;;;19.04;44.18;101532.87;1698454;84;21097;-51
2022/09/21 07:23:34;;;;;;;1.50;1.40;;;;;;;19.08;44.00;101533.95;1698178;84;21037;-55
2022/09/21 07:26:03;;;;;;;1.77;1.62;;;;;;;19.10;43.88;101528.15;1698166;84;21041;-52
2022/09/21 07:28:30;;;;;;;2.15;1.62;;;;;;;19.09;43.76;101531.73;1699070;83;21018;-52
2022/09/21 07:30:58;;;;;;;1.77;1.67;;;;;;;19.11;43.81;101521.97;1698356;83;21507;-54
2022/09/21 07:33:25;;;;;;;1.82;1.72;;;;;;;19.15;43.50;101518.27;1698817;84;20991;-53
2022/09/21 07:35:57;;;;;;;2.05;1.92;;;;;;;19.19;43.42;101521.61;1695452;83;21006;-54
2022/09/21 07:38:24;;;;;;;2.50;1.70;;;;;;;19.23;43.23;101516.13;1695906;84;21024;-55
2022/09/21 07:40:51;;;;;;;1.87;1.67;;;;;;;19.28;43.07;101516.80;1701463;84;21546;-52
2022/09/21 07:43:17;;;;;;;1.60;1.50;;;;;;;19.31;42.95;101521.91;1693061;84;21087;-54
2022/09/21 07:45:54;;;;;;;2.98;1.67;;;;;;;19.35;42.70;101518.73;1704146;83;21079;-51
2022/09/21 07:48:21;;;;;;;1.60;1.50;;;;;;;19.36;42.48;101514.69;1715617;83;21518;-52
2022/09/21 07:50:48;;;;;;;2.00;1.80;;;;;;;19.36;42.72;101517.33;1716506;82;21053;-54
2022/09/21 07:53:16;;;;;;;2.50;2.10;;;;;;;19.39;43.73;101521.62;1700846;84;21022;-52
2022/09/21 07:55:43;;;;;;;2.50;2.08;;;;;;;19.39;44.38;101513.21;1707662;83;21542;-54
2022/09/21 08:00:55;;;;;;;2.08;1.80;;;;;;;19.41;44.23;101520.59;1720601;82;21088;-56
2022/09/21 08:03:22;;;;;;;2.20;2.00;;;;;;;19.42;44.16;101518.82;1729370;82;21006;-52
2022/09/21 08:05:50;;;;;;;3.22;2.00;;;;;;;19.41;44.39;101517.95;1728755;82;21100;-51
2022/09/21 08:08:17;;;;;;;2.17;1.90;;;;;;;19.41;44.45;101512.67;1729359;82;21509;-59
2022/09/21 08:10:44;;;;;;;2.22;2.02;;;;;;;19.41;44.33;101512.67;1729342;81;20985;-54
2022/09/21 08:13:11;;;;;;;2.33;2.12;;;;;;;19.40;44.25;101512.76;1707566;84;21097;-55
2022/09/21 08:15:39;;;;;;;2.05;1.95;;;;;;;19.39;43.98;101511.06;1720523;83;21569;-52
2022/09/21 08:18:06;;;;;;;2.12;1.92;;;;;;;19.37;43.99;101507.64;1730285;82;21073;-51
2022/09/21 08:20:34;;;;;;;1.85;1.70;;;;;;;19.38;44.17;101507.56;1729048;82;21025;-56
2022/09/21 08:23:01;;;;;;;1.70;1.60;;;;;;;19.42;44.05;101508.27;1728630;82;21081;-51
2022/09/21 08:25:29;;;;;;;1.87;1.67;;;;;;;19.48;43.34;101502.70;1728264;82;21029;-54
2022/09/21 08:27:59;;;;;;;1.42;1.32;;;;;;;19.54;42.73;101509.50;1726739;82;21048;-53
2022/09/21 08:30:27;;;;;;;1.62;1.50;;;;;;;19.60;42.13;101507.89;1710140;84;21052;-52
2022/09/21 08:32:55;;;;;;;1.60;1.50;;;;;;;19.62;41.41;101508.67;1729577;82;21033;-53
2022/09/21 08:35:22;;;;;;;2.12;1.67;;;;;;;19.64;40.84;101508.97;1709687;84;21084;-55
2022/09/21 08:37:50;;;;;;;1.62;1.52;;;;;;;19.66;40.61;101504.95;1728817;82;21061;-57
2022/09/21 08:40:19;;;;;;;1.92;1.60;;;;;;;19.69;40.63;101506.11;1703303;81;21037;-55
2022/09/21 08:43:00;;;;;;;2.17;1.50;;;;;;;19.74;40.62;101506.77;1727547;82;21049;-60
2022/09/21 08:45:35;;;;;;;2.27;1.52;;;;;;;19.80;40.66;101520.54;1701205;83;21644;-54
2022/09/21 08:48:04;;;;;;;1.70;1.60;;;;;;;19.84;40.31;101510.22;1693188;84;21025;-54
2022/09/21 08:50:41;;;;;;;1.95;1.85;;;;;;;19.90;40.62;101505.09;1701361;84;21032;-56
2022/09/21 08:53:16;;;;;;;2.52;1.82;;;;;;;19.96;40.95;101510.95;1638941;87;21059;-55
2022/09/21 08:55:43;;;;;;;2.80;1.55;;;;;;;20.01;41.47;101505.44;1639260;86;21126;-56
2022/09/21 08:58:25;;;;;;;1.72;1.62;;;;;;;20.05;42.07;101508.33;1633275;87;21104;-54
2022/09/21 09:01:22;;;;;;;3.17;2.25;;;;;;;20.04;42.01;101505.27;1597730;89;21038;-55
2022/09/21 09:04:43;;;;;;;1.45;1.35;;;;;;;20.05;42.54;101514.92;1597650;89;21044;-54
2022/09/21 09:07:21;;;;;;;1.55;1.45;;;;;;;20.03;42.45;101507.55;1572133;90;21133;-54
2022/09/21 09:10:28;;;;;;;1.90;1.60;;;;;;;20.02;42.28;101511.10;1597651;89;21151;-54
2022/09/21 09:13:22;;;;;;;1.70;1.37;;;;;;;20.05;42.69;101501.72;1572161;90;21156;-52
2022/09/21 09:15:57;;;;;;;1.40;1.30;;;;;;;20.13;42.48;101496.91;1572336;90;21108;-52
2022/09/21 09:18:43;;;;;;;1.95;1.20;;;;;;;20.24;42.48;101497.25;1597816;89;21051;-54
2022/09/21 09:21:30;;;;;;;1.30;1.20;;;;;;;20.33;42.59;101504.73;1597959;89;21032;-52
2022/09/21 09:24:14;;;;;;;1.00;1.00;;;;;;;20.43;42.07;101503.33;1562960;90;21540;-54
2022/09/21 09:26:53;;;;;;;1.05;0.90;;;;;;;20.50;41.42;101488.02;1563698;90;21552;-54
2022/09/21 09:29:34;;;;;;;1.20;1.10;;;;;;;20.55;41.28;101493.45;1589769;88;21548;-52
2022/09/21 09:32:01;;;;;;;2.75;1.30;;;;;;;20.60;40.93;101488.79;1594050;89;21150;-54
2022/09/21 09:34:33;;;;;;;1.20;1.10;;;;;;;20.61;40.70;101486.52;1593261;89;21072;-52
2022/09/21 09:37:13;;;;;;;2.35;1.17;;;;;;;20.58;40.83;101489.34;1620228;87;21496;-54
2022/09/21 09:39:41;;;;;;;1.12;1.02;;;;;;;20.56;41.46;101491.20;1558730;90;21081;-52
2022/09/21 09:42:47;;;;;;;1.52;1.40;;;;;;;20.57;41.22;101487.61;1606954;89;21577;-54
2022/09/21 09:45:49;;;;;;;2.20;1.30;;;;;;;20.56;40.93;101485.06;1588280;90;21720;-54
2022/09/21 09:48:43;;;;;;;2.08;1.05;;;;;;;20.52;40.85;101481.72;1592812;90;21041;-60
2022/09/21 09:51:11;;;;;;;1.35;1.20;;;;;;;20.51;40.85;101485.28;1590374;90;21068;-54
2022/09/21 09:53:39;;;;;;;1.32;1.12;;;;;;;20.49;40.71;101475.26;1573224;90;21050;-60
2022/09/21 09:56:08;;;;;;;1.07;0.98;;;;;;;20.51;40.96;101480.00;1564885;91;21141;-54
2022/09/21 09:58:45;;;;;;;1.47;1.10;;;;;;;20.53;41.06;101472.84;1559853;90;21137;-55
2022/09/21 10:01:37;;;;;;;1.20;1.10;;;;;;;20.55;40.73;101473.62;1559453;92;21636;-56
2022/09/21 10:04:09;;;;;;;2.37;1.17;;;;;;;20.53;40.69;101468.88;1512184;94;21167;-56
2022/09/21 10:06:37;;;;;;;2.20;1.05;;;;;;;20.51;40.65;101473.39;1513089;94;21596;-55
2022/09/21 10:09:27;;;;;;;1.87;1.20;;;;;;;20.50;40.54;101478.77;1520007;94;21088;-57
2022/09/21 10:12:00;;;;;;;3.08;1.25;;;;;;;20.47;40.61;101478.45;1529512;93;21195;-54
2022/09/21 10:14:33;;;;;;;0.98;0.90;;;;;;;20.48;41.00;101475.34;1467108;97;21663;-59
2022/09/21 10:17:07;;;;;;;1.47;1.20;;;;;;;20.50;41.36;101479.62;1464242;98;21117;-53
2022/09/21 10:19:35;;;;;;;1.30;1.20;;;;;;;20.55;41.43;101476.27;1439997;98;21615;-53
2022/09/21 10:22:03;;;;;;;1.75;1.57;;;;;;;20.60;41.42;101472.06;1469689;97;22433;-53
2022/09/21 10:24:39;;;;;;;2.30;1.12;;;;;;;20.65;41.62;101479.30;1469075;96;21643;-54
2022/09/21 10:27:12;;;;;;;1.35;1.30;;;;;;;20.66;41.78;101475.25;1461288;98;21137;-57
2022/09/21 10:29:42;;;;;;;2.12;1.30;;;;;;;20.65;41.80;101477.48;1448078;98;21228;-54
2022/09/21 10:32:17;;;;;;;3.05;1.25;;;;;;;20.64;42.12;101478.91;1449210;98;21079;-57
2022/09/21 10:35:10;;;;;;;1.67;1.57;;;;;;;20.59;42.44;101486.20;1457093;95;21137;-55
2022/09/21 10:37:47;;;;;;;2.55;1.62;;;;;;;20.55;42.77;101477.58;1468900;98;21075;-54
2022/09/21 10:40:23;;;;;;;1.90;1.72;;;;;;;20.54;43.08;101475.03;1471608;96;21123;-57
2022/09/21 10:42:53;;;;;;;2.55;1.72;;;;;;;20.53;42.79;101478.13;1458314;98;21110;-54
2022/09/21 10:45:28;;;;;;;1.90;1.80;;;;;;;20.52;42.67;101480.86;1463934;98;21576;-53
2022/09/21 10:48:09;;;;;;;1.77;1.67;;;;;;;20.51;42.76;101487.93;1463903;98;21600;-55
2022/09/21 10:50:41;;;;;;;3.52;1.80;;;;;;;20.48;42.90;101480.17;1472922;96;21160;-53
2022/09/21 10:53:31;;;;;;;1.75;1.65;;;;;;;20.43;42.67;101473.39;1493925;96;21140;-56
2022/09/21 10:56:06;;;;;;;1.80;1.70;;;;;;;20.41;42.80;101475.25;1492749;96;21107;-55
2022/09/21 10:58:34;;;;;;;1.70;1.60;;;;;;;20.39;43.07;101476.66;1486600;96;21152;-58
2022/09/21 11:04:07;;;;;;;1.90;1.70;;;;;;;20.33;43.09;101476.97;1485620;95;21135;-54
2022/09/21 11:06:41;;;;;;;1.70;1.60;;;;;;;20.29;43.12;101479.39;1458579;97;21096;-54
2022/09/21 11:09:40;;;;;;;1.57;1.47;;;;;;;20.25;43.37;101475.19;1459252;97;21072;-56
2022/09/21 11:12:46;;;;;;;2.15;1.87;;;;;;;20.25;43.86;101475.19;1471388;96;21187;-56
2022/09/21 11:15:46;;;;;;;1.72;1.62;;;;;;;20.30;43.92;101467.86;1485092;95;21096;-57
2022/09/21 11:18:43;;;;;;;2.08;1.98;;;;;;;20.37;44.19;101465.31;1450413;98;21132;-54
2022/09/21 11:21:28;;;;;;;1.75;1.65;;;;;;;20.43;43.31;101466.32;1444547;99;21088;-53
2022/09/21 11:24:16;;;;;;;1.98;1.67;;;;;;;20.41;42.69;101461.58;1445640;97;21122;-58
2022/09/21 11:26:58;;;;;;;1.50;1.40;;;;;;;20.43;42.05;101466.32;1402075;101;21594;-56
2022/09/21 11:29:54;;;;;;;1.35;1.25;;;;;;;20.45;41.33;101467.09;1372416;103;21196;-57
2022/09/21 11:32:55;;;;;;;1.10;1.00;;;;;;;20.49;40.83;101460.72;1366160;103;21173;-58
2022/09/21 11:35:40;;;;;;;1.50;1.40;;;;;;;20.56;40.25;101465.23;1363649;103;21170;-58
2022/09/21 11:38:19;;;;;;;2.35;1.10;;;;;;;20.64;39.42;101459.94;1349749;105;21157;-55
2022/09/21 11:40:54;;;;;;;3.25;2.30;;;;;;;20.74;38.93;101460.30;1343178;105;21185;-55
2022/09/21 11:43:35;;;;;;;1.35;1.25;;;;;;;20.81;39.11;101464.34;1347641;105;21176;-54
2022/09/21 11:46:32;;;;;;;1.80;1.70;;;;;;;20.83;38.40;101463.33;1345379;105;21170;-55
2022/09/21 11:49:42;;;;;;;1.52;1.42;;;;;;;20.84;38.56;101455.77;1354060;104;21129;-54
2022/09/21 11:52:31;;;;;;;1.22;1.10;;;;;;;20.83;39.09;101455.39;1395089;101;21189;-56
2022/09/21 11:55:35;;;;;;;1.75;1.50;;;;;;;20.84;40.01;101456.22;1381302;104;21125;-55
2022/09/21 11:58:38;;;;;;;1.75;1.65;;;;;;;20.82;39.45;101456.31;1388049;102;21174;-58
2022/09/21 12:01:36;;;;;;;1.30;1.25;;;;;;;20.84;39.48;101453.13;1429829;97;21597;-56
2022/09/21 12:04:37;;;;;;;4.62;1.52;;;;;;;20.89;39.20;101455.53;1481986;95;21147;-57